SGEN/ENO METAR and TAF weather

Enter ICAO airport designator
Station Type Date Time Source
SGEN METAR 2020/11/26 21:00 UTC NOAA

SGEN 262100Z 14003KT 9999 BKN020 BKN060 23/20 Q1012


Station Type Date Time Source
SGEN Decoded METAR 2020/11/26 21:00 UTC NOAA

Encarnacion, Paraguay (SGEN) 27-19S 055-50W 91M
Nov 26, 2020 - 04:00 PM EST / 2020.11.26 2100 UTC
Wind: from the SE (140 degrees) at 3 MPH (3 KT):0
Visibility: greater than 7 mile(s):0
Sky conditions: mostly cloudy
Temperature: 73 F (23 C)
Dew Point: 68 F (20 C)
Relative Humidity: 83%
Pressure (altimeter): 29.88 in. Hg (1012 hPa)
ob: SGEN 262100Z 14003KT 9999 BKN020 BKN060 23/20 Q1012
cycle: 21

Station Type Date Time Source
SGEN TAF 2020/11/26 18:00 UTC NOAA

TAF SGEN 261615Z 2618/2718 12010KT 9999 BKN015 TX23/2619Z TN20/2709Z
TEMPO 2620/2622 24010KT 7000 TSRA OVC010 FEW040CB
BECMG 2702/2705 12005KT 9000 -RA BKN020

Example: see airport list